sensor_id;sensor_type;location;lat;lon;timestamp;pressure;altitude;pressure_sealevel;temperature;humidity
55460;BME280;41326;45.302;-122.946;2023-09-12T00:00:24;101106.96;;;22.48;59.72
55460;BME280;41326;45.302;-122.946;2023-09-12T00:02:56;101105.79;;;22.51;59.90
55460;BME280;41326;45.302;-122.946;2023-09-12T00:05:25;101103.86;;;22.53;60.11
55460;BME280;41326;45.302;-122.946;2023-09-12T00:07:58;101103.50;;;22.53;60.17
55460;BME280;41326;45.302;-122.946;2023-09-12T00:10:26;101103.54;;;22.56;60.21
55460;BME280;41326;45.302;-122.946;2023-09-12T00:12:57;101102.67;;;22.57;60.29
55460;BME280;41326;45.302;-122.946;2023-09-12T00:15:27;101099.57;;;22.60;60.29
55460;BME280;41326;45.302;-122.946;2023-09-12T00:17:56;101099.76;;;22.61;60.36
55460;BME280;41326;45.302;-122.946;2023-09-12T00:20:27;101095.78;;;22.60;60.38
55460;BME280;41326;45.302;-122.946;2023-09-12T00:22:58;101099.07;;;22.62;60.28
55460;BME280;41326;45.302;-122.946;2023-09-12T00:25:27;101098.82;;;22.63;60.20
55460;BME280;41326;45.302;-122.946;2023-09-12T00:27:57;101096.90;;;22.63;60.21
55460;BME280;41326;45.302;-122.946;2023-09-12T00:30:28;101097.28;;;22.59;60.53
55460;BME280;41326;45.302;-122.946;2023-09-12T00:32:58;101099.06;;;22.59;60.75
55460;BME280;41326;45.302;-122.946;2023-09-12T00:35:29;101099.23;;;22.65;60.91
55460;BME280;41326;45.302;-122.946;2023-09-12T00:37:59;101097.99;;;22.68;61.02
55460;BME280;41326;45.302;-122.946;2023-09-12T00:40:29;101098.05;;;22.68;61.10
55460;BME280;41326;45.302;-122.946;2023-09-12T00:43:00;101100.25;;;22.69;61.25
55460;BME280;41326;45.302;-122.946;2023-09-12T00:45:30;101099.72;;;22.71;61.32
55460;BME280;41326;45.302;-122.946;2023-09-12T00:48:01;101100.93;;;22.72;61.54
55460;BME280;41326;45.302;-122.946;2023-09-12T00:50:31;101098.69;;;22.72;61.75
55460;BME280;41326;45.302;-122.946;2023-09-12T00:53:01;101098.12;;;22.73;61.67
55460;BME280;41326;45.302;-122.946;2023-09-12T00:55:31;101103.22;;;22.74;61.62
55460;BME280;41326;45.302;-122.946;2023-09-12T00:58:00;101104.94;;;22.76;62.01
55460;BME280;41326;45.302;-122.946;2023-09-12T01:00:30;101103.59;;;22.74;62.66
55460;BME280;41326;45.302;-122.946;2023-09-12T01:03:01;101104.67;;;22.77;62.74
55460;BME280;41326;45.302;-122.946;2023-09-12T01:05:34;101101.68;;;22.83;62.40
55460;BME280;41326;45.302;-122.946;2023-09-12T01:08:01;101099.76;;;22.85;62.06
55460;BME280;41326;45.302;-122.946;2023-09-12T01:10:32;101098.04;;;22.85;61.91
55460;BME280;41326;45.302;-122.946;2023-09-12T01:13:02;101094.29;;;22.87;61.80
55460;BME280;41326;45.302;-122.946;2023-09-12T01:15:33;101093.39;;;22.91;61.58
55460;BME280;41326;45.302;-122.946;2023-09-12T01:18:04;101091.20;;;22.93;61.47
55460;BME280;41326;45.302;-122.946;2023-09-12T01:20:36;101092.39;;;22.93;61.40
55460;BME280;41326;45.302;-122.946;2023-09-12T01:23:16;101090.10;;;22.88;58.46
55460;BME280;41326;45.302;-122.946;2023-09-12T01:28:06;101090.49;;;22.51;54.53
55460;BME280;41326;45.302;-122.946;2023-09-12T01:30:37;101092.43;;;22.21;54.77
55460;BME280;41326;45.302;-122.946;2023-09-12T01:33:05;101094.17;;;22.07;58.37
55460;BME280;41326;45.302;-122.946;2023-09-12T01:35:35;101091.34;;;22.16;59.68
55460;BME280;41326;45.302;-122.946;2023-09-12T01:38:05;101089.94;;;22.26;60.51
55460;BME280;41326;45.302;-122.946;2023-09-12T01:40:42;101087.57;;;22.29;61.33
55460;BME280;41326;45.302;-122.946;2023-09-12T01:43:06;101090.45;;;22.33;61.64
55460;BME280;41326;45.302;-122.946;2023-09-12T01:45:36;101091.98;;;22.39;61.73
55460;BME280;41326;45.302;-122.946;2023-09-12T01:48:08;101096.19;;;22.37;61.98
55460;BME280;41326;45.302;-122.946;2023-09-12T01:50:38;101094.60;;;22.34;62.03
55460;BME280;41326;45.302;-122.946;2023-09-12T01:53:07;101095.89;;;22.38;62.05
55460;BME280;41326;45.302;-122.946;2023-09-12T01:55:38;101094.33;;;22.33;62.04
55460;BME280;41326;45.302;-122.946;2023-09-12T01:58:08;101097.68;;;22.21;62.25
55460;BME280;41326;45.302;-122.946;2023-09-12T02:00:39;101096.52;;;22.16;62.30
55460;BME280;41326;45.302;-122.946;2023-09-12T02:03:09;101097.88;;;22.17;62.26
55460;BME280;41326;45.302;-122.946;2023-09-12T02:05:39;101100.04;;;22.18;62.28
55460;BME280;41326;45.302;-122.946;2023-09-12T02:08:09;101102.57;;;22.22;62.17
55460;BME280;41326;45.302;-122.946;2023-09-12T02:10:39;101098.26;;;22.20;61.97
55460;BME280;41326;45.302;-122.946;2023-09-12T02:13:09;101099.12;;;22.16;61.96
55460;BME280;41326;45.302;-122.946;2023-09-12T02:15:40;101106.18;;;22.14;61.86
55460;BME280;41326;45.302;-122.946;2023-09-12T02:18:10;101105.00;;;22.07;61.97
55460;BME280;41326;45.302;-122.946;2023-09-12T02:20:44;101103.02;;;22.02;62.03
55460;BME280;41326;45.302;-122.946;2023-09-12T02:23:11;101101.62;;;22.04;62.31
55460;BME280;41326;45.302;-122.946;2023-09-12T02:25:41;101104.87;;;22.09;62.27
55460;BME280;41326;45.302;-122.946;2023-09-12T02:28:11;101104.05;;;22.09;62.25
55460;BME280;41326;45.302;-122.946;2023-09-12T02:30:44;101102.84;;;22.08;62.21
55460;BME280;41326;45.302;-122.946;2023-09-12T02:33:11;101104.07;;;22.03;62.05
55460;BME280;41326;45.302;-122.946;2023-09-12T02:35:41;101104.99;;;22.05;61.93
55460;BME280;41326;45.302;-122.946;2023-09-12T02:38:13;101103.94;;;22.06;61.56
55460;BME280;41326;45.302;-122.946;2023-09-12T02:40:42;101103.24;;;22.05;61.56
55460;BME280;41326;45.302;-122.946;2023-09-12T02:43:12;101105.83;;;22.05;61.63
55460;BME280;41326;45.302;-122.946;2023-09-12T02:45:43;101108.20;;;22.07;61.76
55460;BME280;41326;45.302;-122.946;2023-09-12T02:48:13;101110.75;;;22.03;61.62
55460;BME280;41326;45.302;-122.946;2023-09-12T02:50:43;101109.26;;;21.99;61.64
55460;BME280;41326;45.302;-122.946;2023-09-12T02:53:13;101109.79;;;21.97;61.73
55460;BME280;41326;45.302;-122.946;2023-09-12T02:55:45;101118.31;;;22.04;61.50
55460;BME280;41326;45.302;-122.946;2023-09-12T02:58:14;101119.85;;;21.99;61.54
55460;BME280;41326;45.302;-122.946;2023-09-12T03:00:45;101123.37;;;21.93;60.87
55460;BME280;41326;45.302;-122.946;2023-09-12T03:03:14;101126.47;;;21.93;60.91
55460;BME280;41326;45.302;-122.946;2023-09-12T03:05:44;101130.30;;;21.94;60.43
55460;BME280;41326;45.302;-122.946;2023-09-12T03:08:15;101133.11;;;21.93;60.13
55460;BME280;41326;45.302;-122.946;2023-09-12T03:10:44;101138.48;;;21.89;60.07
55460;BME280;41326;45.302;-122.946;2023-09-12T03:13:17;101138.93;;;21.86;60.00
55460;BME280;41326;45.302;-122.946;2023-09-12T03:15:45;101146.40;;;21.90;59.59
55460;BME280;41326;45.302;-122.946;2023-09-12T03:18:15;101151.45;;;21.88;59.54
55460;BME280;41326;45.302;-122.946;2023-09-12T03:20:45;101156.64;;;21.80;58.75
55460;BME280;41326;45.302;-122.946;2023-09-12T03:23:16;101155.94;;;21.77;58.93
55460;BME280;41326;45.302;-122.946;2023-09-12T03:25:47;101159.34;;;21.77;58.66
55460;BME280;41326;45.302;-122.946;2023-09-12T03:28:17;101155.65;;;21.65;58.17
55460;BME280;41326;45.302;-122.946;2023-09-12T03:30:47;101161.25;;;21.62;58.92
55460;BME280;41326;45.302;-122.946;2023-09-12T03:33:17;101161.05;;;21.60;58.89
55460;BME280;41326;45.302;-122.946;2023-09-12T03:35:49;101161.39;;;21.60;58.74
55460;BME280;41326;45.302;-122.946;2023-09-12T03:38:18;101163.36;;;21.55;58.56
55460;BME280;41326;45.302;-122.946;2023-09-12T03:40:48;101164.60;;;21.56;58.76
55460;BME280;41326;45.302;-122.946;2023-09-12T03:43:18;101165.87;;;21.51;58.89
55460;BME280;41326;45.302;-122.946;2023-09-12T03:45:49;101167.68;;;21.48;59.46
55460;BME280;41326;45.302;-122.946;2023-09-12T03:48:19;101168.62;;;21.54;59.53
55460;BME280;41326;45.302;-122.946;2023-09-12T03:50:50;101170.24;;;21.57;56.32
55460;BME280;41326;45.302;-122.946;2023-09-12T03:53:20;101174.69;;;21.51;54.87
55460;BME280;41326;45.302;-122.946;2023-09-12T03:55:50;101177.88;;;21.48;54.93
55460;BME280;41326;45.302;-122.946;2023-09-12T03:58:20;101179.11;;;21.43;54.68
55460;BME280;41326;45.302;-122.946;2023-09-12T04:00:50;101182.31;;;21.36;52.81
55460;BME280;41326;45.302;-122.946;2023-09-12T04:03:20;101183.62;;;21.25;52.20
55460;BME280;41326;45.302;-122.946;2023-09-12T04:05:52;101185.58;;;21.08;55.15
55460;BME280;41326;45.302;-122.946;2023-09-12T04:08:21;101190.17;;;20.97;55.52
55460;BME280;41326;45.302;-122.946;2023-09-12T04:10:51;101195.46;;;20.74;54.46
55460;BME280;41326;45.302;-122.946;2023-09-12T04:13:21;101195.83;;;20.57;52.65
55460;BME280;41326;45.302;-122.946;2023-09-12T04:15:52;101202.63;;;20.47;52.45
55460;BME280;41326;45.302;-122.946;2023-09-12T04:18:22;101203.07;;;20.32;52.25
55460;BME280;41326;45.302;-122.946;2023-09-12T04:20:52;101199.28;;;20.12;52.34
55460;BME280;41326;45.302;-122.946;2023-09-12T04:23:24;101200.95;;;19.99;51.85
55460;BME280;41326;45.302;-122.946;2023-09-12T04:25:53;101201.19;;;19.92;52.46
55460;BME280;41326;45.302;-122.946;2023-09-12T04:28:24;101198.87;;;19.82;52.71
55460;BME280;41326;45.302;-122.946;2023-09-12T04:33:24;101201.57;;;19.64;52.98
55460;BME280;41326;45.302;-122.946;2023-09-12T04:35:54;101200.90;;;19.79;56.73
55460;BME280;41326;45.302;-122.946;2023-09-12T04:38:24;101204.75;;;20.05;56.95
55460;BME280;41326;45.302;-122.946;2023-09-12T04:41:00;101208.47;;;20.28;56.80
55460;BME280;41326;45.302;-122.946;2023-09-12T04:43:25;101202.43;;;20.42;57.17
55460;BME280;41326;45.302;-122.946;2023-09-12T04:45:55;101206.93;;;20.59;57.44
55460;BME280;41326;45.302;-122.946;2023-09-12T04:48:25;101207.98;;;20.68;57.86
55460;BME280;41326;45.302;-122.946;2023-09-12T04:50:56;101207.97;;;20.73;57.93
55460;BME280;41326;45.302;-122.946;2023-09-12T04:53:26;101208.51;;;20.80;57.88
55460;BME280;41326;45.302;-122.946;2023-09-12T04:55:58;101210.70;;;20.86;57.78
55460;BME280;41326;45.302;-122.946;2023-09-12T04:58:27;101210.45;;;20.90;57.86
55460;BME280;41326;45.302;-122.946;2023-09-12T05:00:57;101214.72;;;20.95;57.93
55460;BME280;41326;45.302;-122.946;2023-09-12T05:03:28;101214.51;;;20.97;58.13
55460;BME280;41326;45.302;-122.946;2023-09-12T05:05:58;101216.19;;;21.02;58.44
55460;BME280;41326;45.302;-122.946;2023-09-12T05:08:28;101218.86;;;21.07;58.64
55460;BME280;41326;45.302;-122.946;2023-09-12T05:10:58;101223.35;;;21.08;58.78
55460;BME280;41326;45.302;-122.946;2023-09-12T05:13:29;101225.84;;;21.11;58.76
55460;BME280;41326;45.302;-122.946;2023-09-12T05:15:59;101228.34;;;21.15;58.68
55460;BME280;41326;45.302;-122.946;2023-09-12T05:18:29;101227.20;;;21.17;58.64
55460;BME280;41326;45.302;-122.946;2023-09-12T05:21:00;101221.82;;;21.18;58.69
55460;BME280;41326;45.302;-122.946;2023-09-12T05:23:29;101220.36;;;21.20;58.83
55460;BME280;41326;45.302;-122.946;2023-09-12T05:26:00;101216.71;;;21.23;59.16
55460;BME280;41326;45.302;-122.946;2023-09-12T05:28:30;101217.99;;;21.20;59.62
55460;BME280;41326;45.302;-122.946;2023-09-12T05:31:01;101219.44;;;21.21;59.70
55460;BME280;41326;45.302;-122.946;2023-09-12T05:33:31;101216.75;;;21.22;58.33
55460;BME280;41326;45.302;-122.946;2023-09-12T05:36:01;101221.80;;;21.15;57.19
55460;BME280;41326;45.302;-122.946;2023-09-12T05:38:32;101225.46;;;21.02;54.41
55460;BME280;41326;45.302;-122.946;2023-09-12T05:41:02;101228.21;;;20.98;57.13
55460;BME280;41326;45.302;-122.946;2023-09-12T05:43:32;101235.74;;;21.01;57.72
55460;BME280;41326;45.302;-122.946;2023-09-12T05:46:02;101238.58;;;21.05;58.29
55460;BME280;41326;45.302;-122.946;2023-09-12T05:48:33;101239.52;;;21.08;58.66
55460;BME280;41326;45.302;-122.946;2023-09-12T05:51:03;101241.01;;;21.05;58.72
55460;BME280;41326;45.302;-122.946;2023-09-12T05:53:33;101242.37;;;21.07;58.70
55460;BME280;41326;45.302;-122.946;2023-09-12T05:56:03;101242.34;;;21.09;58.67
55460;BME280;41326;45.302;-122.946;2023-09-12T05:58:35;101242.85;;;21.13;58.56
55460;BME280;41326;45.302;-122.946;2023-09-12T06:01:04;101241.62;;;21.13;58.58
55460;BME280;41326;45.302;-122.946;2023-09-12T06:03:35;101245.33;;;21.14;58.92
55460;BME280;41326;45.302;-122.946;2023-09-12T06:06:05;101245.66;;;21.15;59.62
55460;BME280;41326;45.302;-122.946;2023-09-12T06:08:36;101245.86;;;21.16;59.81
55460;BME280;41326;45.302;-122.946;2023-09-12T06:11:05;101247.34;;;21.17;59.76
55460;BME280;41326;45.302;-122.946;2023-09-12T06:13:36;101250.75;;;21.19;59.65
55460;BME280;41326;45.302;-122.946;2023-09-12T06:16:07;101253.54;;;21.21;59.59
55460;BME280;41326;45.302;-122.946;2023-09-12T06:18:36;101255.64;;;21.21;59.59
55460;BME280;41326;45.302;-122.946;2023-09-12T06:21:07;101254.98;;;21.19;59.65
55460;BME280;41326;45.302;-122.946;2023-09-12T06:23:37;101254.75;;;21.20;59.88
55460;BME280;41326;45.302;-122.946;2023-09-12T06:26:07;101255.40;;;21.22;60.37
55460;BME280;41326;45.302;-122.946;2023-09-12T06:28:38;101257.29;;;21.23;60.39
55460;BME280;41326;45.302;-122.946;2023-09-12T06:31:08;101256.31;;;21.23;60.22
55460;BME280;41326;45.302;-122.946;2023-09-12T06:33:38;101256.59;;;21.22;60.15
55460;BME280;41326;45.302;-122.946;2023-09-12T06:36:09;101254.72;;;21.21;60.12
55460;BME280;41326;45.302;-122.946;2023-09-12T06:38:39;101253.48;;;21.20;60.20
55460;BME280;41326;45.302;-122.946;2023-09-12T06:41:09;101252.74;;;21.21;60.14
55460;BME280;41326;45.302;-122.946;2023-09-12T06:43:40;101253.39;;;21.22;60.26
55460;BME280;41326;45.302;-122.946;2023-09-12T06:46:10;101252.28;;;21.23;60.59
55460;BME280;41326;45.302;-122.946;2023-09-12T06:48:41;101249.24;;;21.25;60.51
55460;BME280;41326;45.302;-122.946;2023-09-12T06:51:12;101253.33;;;21.24;60.43
55460;BME280;41326;45.302;-122.946;2023-09-12T06:53:41;101255.21;;;21.22;60.43
55460;BME280;41326;45.302;-122.946;2023-09-12T06:56:12;101253.54;;;21.22;60.29
55460;BME280;41326;45.302;-122.946;2023-09-12T06:58:42;101254.53;;;21.23;60.14
55460;BME280;41326;45.302;-122.946;2023-09-12T07:01:13;101255.55;;;21.19;60.07
55460;BME280;41326;45.302;-122.946;2023-09-12T07:03:43;101257.80;;;21.19;60.30
55460;BME280;41326;45.302;-122.946;2023-09-12T07:06:13;101261.24;;;21.21;60.54
55460;BME280;41326;45.302;-122.946;2023-09-12T07:08:44;101262.85;;;21.19;60.76
55460;BME280;41326;45.302;-122.946;2023-09-12T07:11:14;101266.72;;;21.18;60.64
55460;BME280;41326;45.302;-122.946;2023-09-12T07:13:46;101270.43;;;21.19;60.46
55460;BME280;41326;45.302;-122.946;2023-09-12T07:16:15;101273.29;;;21.19;60.38
55460;BME280;41326;45.302;-122.946;2023-09-12T07:18:45;101275.89;;;21.19;60.30
55460;BME280;41326;45.302;-122.946;2023-09-12T07:21:16;101273.76;;;21.19;60.02
55460;BME280;41326;45.302;-122.946;2023-09-12T07:23:47;101279.17;;;21.18;60.15
55460;BME280;41326;45.302;-122.946;2023-09-12T07:26:18;101280.71;;;21.20;60.36
55460;BME280;41326;45.302;-122.946;2023-09-12T07:28:47;101282.77;;;21.18;60.43
55460;BME280;41326;45.302;-122.946;2023-09-12T07:31:17;101282.76;;;21.18;60.38
55460;BME280;41326;45.302;-122.946;2023-09-12T07:33:47;101283.84;;;21.16;60.43
55460;BME280;41326;45.302;-122.946;2023-09-12T07:36:17;101282.91;;;21.17;60.36
55460;BME280;41326;45.302;-122.946;2023-09-12T07:38:48;101283.61;;;21.18;60.17
55460;BME280;41326;45.302;-122.946;2023-09-12T07:41:18;101282.90;;;21.17;60.12
55460;BME280;41326;45.302;-122.946;2023-09-12T07:43:48;101285.88;;;21.17;60.26
55460;BME280;41326;45.302;-122.946;2023-09-12T07:46:18;101284.64;;;21.19;60.38
55460;BME280;41326;45.302;-122.946;2023-09-12T07:48:48;101285.69;;;21.19;60.33
55460;BME280;41326;45.302;-122.946;2023-09-12T07:51:19;101284.39;;;21.16;60.30
55460;BME280;41326;45.302;-122.946;2023-09-12T07:53:49;101282.74;;;21.17;60.23
55460;BME280;41326;45.302;-122.946;2023-09-12T07:56:19;101285.74;;;21.17;60.05
55460;BME280;41326;45.302;-122.946;2023-09-12T07:58:49;101287.56;;;21.19;59.80
55460;BME280;41326;45.302;-122.946;2023-09-12T08:01:19;101283.37;;;21.17;59.74
55460;BME280;41326;45.302;-122.946;2023-09-12T08:03:50;101283.46;;;21.16;59.83
55460;BME280;41326;45.302;-122.946;2023-09-12T08:06:20;101285.06;;;21.17;59.92
55460;BME280;41326;45.302;-122.946;2023-09-12T08:08:50;101285.79;;;21.16;59.96
55460;BME280;41326;45.302;-122.946;2023-09-12T08:11:20;101285.34;;;21.16;59.82
55460;BME280;41326;45.302;-122.946;2023-09-12T08:13:54;101286.95;;;21.16;59.63
55460;BME280;41326;45.302;-122.946;2023-09-12T08:16:21;101288.45;;;21.15;59.34
55460;BME280;41326;45.302;-122.946;2023-09-12T08:18:51;101293.32;;;21.13;59.26
55460;BME280;41326;45.302;-122.946;2023-09-12T08:21:21;101293.80;;;21.11;59.26
55460;BME280;41326;45.302;-122.946;2023-09-12T08:23:51;101293.85;;;21.10;59.24
55460;BME280;41326;45.302;-122.946;2023-09-12T08:26:21;101287.76;;;21.07;59.35
55460;BME280;41326;45.302;-122.946;2023-09-12T08:28:51;101282.17;;;21.06;59.48
55460;BME280;41326;45.302;-122.946;2023-09-12T08:31:21;101283.32;;;21.05;59.43
55460;BME280;41326;45.302;-122.946;2023-09-12T08:33:51;101281.01;;;21.04;59.28
55460;BME280;41326;45.302;-122.946;2023-09-12T08:36:22;101282.98;;;21.03;59.31
55460;BME280;41326;45.302;-122.946;2023-09-12T08:38:52;101279.75;;;21.03;59.31
55460;BME280;41326;45.302;-122.946;2023-09-12T08:41:23;101278.79;;;21.01;59.34
55460;BME280;41326;45.302;-122.946;2023-09-12T08:43:54;101277.70;;;21.03;59.35
55460;BME280;41326;45.302;-122.946;2023-09-12T08:46:24;101273.88;;;21.05;59.33
55460;BME280;41326;45.302;-122.946;2023-09-12T08:48:55;101273.92;;;21.04;59.34
55460;BME280;41326;45.302;-122.946;2023-09-12T08:51:24;101272.46;;;21.00;59.29
55460;BME280;41326;45.302;-122.946;2023-09-12T08:53:54;101272.47;;;20.98;59.32
55460;BME280;41326;45.302;-122.946;2023-09-12T08:56:25;101273.52;;;20.97;59.27
55460;BME280;41326;45.302;-122.946;2023-09-12T08:58:55;101274.79;;;20.97;59.20
55460;BME280;41326;45.302;-122.946;2023-09-12T09:01:25;101274.53;;;20.94;59.30
55460;BME280;41326;45.302;-122.946;2023-09-12T09:03:55;101281.64;;;20.93;59.33
55460;BME280;41326;45.302;-122.946;2023-09-12T09:06:27;101280.95;;;20.92;59.28
55460;BME280;41326;45.302;-122.946;2023-09-12T09:08:56;101280.50;;;20.90;59.37
55460;BME280;41326;45.302;-122.946;2023-09-12T09:11:26;101278.24;;;20.88;59.46
55460;BME280;41326;45.302;-122.946;2023-09-12T09:13:57;101275.68;;;20.88;59.39
55460;BME280;41326;45.302;-122.946;2023-09-12T09:16:26;101268.79;;;20.87;59.35
55460;BME280;41326;45.302;-122.946;2023-09-12T09:18:58;101261.57;;;20.87;59.36
55460;BME280;41326;45.302;-122.946;2023-09-12T09:21:29;101258.60;;;20.86;59.38
55460;BME280;41326;45.302;-122.946;2023-09-12T09:23:59;101258.66;;;20.86;59.41
55460;BME280;41326;45.302;-122.946;2023-09-12T09:29:03;101269.68;;;20.78;59.45
55460;BME280;41326;45.302;-122.946;2023-09-12T09:32:54;101273.34;;;20.74;59.53
55460;BME280;41326;45.302;-122.946;2023-09-12T09:35:21;101268.73;;;20.75;59.55
55460;BME280;41326;45.302;-122.946;2023-09-12T09:37:51;101268.69;;;20.78;59.47
55460;BME280;41326;45.302;-122.946;2023-09-12T09:40:22;101267.37;;;20.80;59.44
55460;BME280;41326;45.302;-122.946;2023-09-12T09:42:53;101266.42;;;20.79;59.50
55460;BME280;41326;45.302;-122.946;2023-09-12T09:45:22;101264.42;;;20.80;59.46
55460;BME280;41326;45.302;-122.946;2023-09-12T09:47:56;101267.93;;;20.80;59.48
55460;BME280;41326;45.302;-122.946;2023-09-12T09:50:22;101267.46;;;20.75;59.54
55460;BME280;41326;45.302;-122.946;2023-09-12T09:52:57;101263.32;;;20.71;59.62
55460;BME280;41326;45.302;-122.946;2023-09-12T09:55:25;101266.17;;;20.71;59.65
55460;BME280;41326;45.302;-122.946;2023-09-12T09:57:55;101272.40;;;20.72;59.59
55460;BME280;41326;45.302;-122.946;2023-09-12T10:00:25;101273.49;;;20.72;59.58
55460;BME280;41326;45.302;-122.946;2023-09-12T10:02:55;101273.18;;;20.71;59.68
55460;BME280;41326;45.302;-122.946;2023-09-12T10:05:24;101268.80;;;20.71;59.73
55460;BME280;41326;45.302;-122.946;2023-09-12T10:07:55;101272.86;;;20.72;59.67
55460;BME280;41326;45.302;-122.946;2023-09-12T10:10:25;101280.90;;;20.71;59.61
55460;BME280;41326;45.302;-122.946;2023-09-12T10:12:57;101282.89;;;20.67;59.67
55460;BME280;41326;45.302;-122.946;2023-09-12T10:15:27;101285.73;;;20.67;59.64
55460;BME280;41326;45.302;-122.946;2023-09-12T10:18:02;101286.76;;;20.68;59.62
55460;BME280;41326;45.302;-122.946;2023-09-12T10:20:33;101283.85;;;20.68;59.64
55460;BME280;41326;45.302;-122.946;2023-09-12T10:23:00;101283.63;;;20.67;59.68
55460;BME280;41326;45.302;-122.946;2023-09-12T10:25:27;101282.94;;;20.66;59.73
55460;BME280;41326;45.302;-122.946;2023-09-12T10:27:58;101282.90;;;20.67;59.70
55460;BME280;41326;45.302;-122.946;2023-09-12T10:30:28;101283.47;;;20.66;59.69
55460;BME280;41326;45.302;-122.946;2023-09-12T10:32:58;101283.38;;;20.64;59.75
55460;BME280;41326;45.302;-122.946;2023-09-12T10:35:28;101279.40;;;20.63;59.78
55460;BME280;41326;45.302;-122.946;2023-09-12T10:38:00;101278.79;;;20.63;59.79
55460;BME280;41326;45.302;-122.946;2023-09-12T10:40:28;101277.41;;;20.64;59.80
55460;BME280;41326;45.302;-122.946;2023-09-12T10:43:01;101280.66;;;20.61;59.89
55460;BME280;41326;45.302;-122.946;2023-09-12T10:45:29;101279.11;;;20.61;59.91
55460;BME280;41326;45.302;-122.946;2023-09-12T10:47:59;101277.20;;;20.61;59.92
55460;BME280;41326;45.302;-122.946;2023-09-12T10:50:29;101279.52;;;20.60;59.94
55460;BME280;41326;45.302;-122.946;2023-09-12T10:55:30;101279.39;;;20.62;59.80
55460;BME280;41326;45.302;-122.946;2023-09-12T10:58:04;101276.88;;;20.61;59.87
55460;BME280;41326;45.302;-122.946;2023-09-12T11:00:30;101281.10;;;20.59;59.93
55460;BME280;41326;45.302;-122.946;2023-09-12T11:05:37;101277.69;;;20.57;59.93
55460;BME280;41326;45.302;-122.946;2023-09-12T11:08:03;101273.10;;;20.58;59.92
55460;BME280;41326;45.302;-122.946;2023-09-12T11:10:32;101271.27;;;20.56;60.00
55460;BME280;41326;45.302;-122.946;2023-09-12T11:13:02;101271.33;;;20.55;60.01
55460;BME280;41326;45.302;-122.946;2023-09-12T11:15:33;101276.57;;;20.58;59.86
55460;BME280;41326;45.302;-122.946;2023-09-12T11:18:08;101274.98;;;20.57;59.79
55460;BME280;41326;45.302;-122.946;2023-09-12T11:23:10;101275.82;;;20.53;59.80
55460;BME280;41326;45.302;-122.946;2023-09-12T11:25:34;101278.83;;;20.47;59.95
55460;BME280;41326;45.302;-122.946;2023-09-12T11:28:07;101277.21;;;20.50;59.85
55460;BME280;41326;45.302;-122.946;2023-09-12T11:30:34;101282.50;;;20.48;59.87
55460;BME280;41326;45.302;-122.946;2023-09-12T11:33:04;101282.05;;;20.46;59.87
55460;BME280;41326;45.302;-122.946;2023-09-12T11:35:36;101281.97;;;20.44;59.82
55460;BME280;41326;45.302;-122.946;2023-09-12T11:38:09;101282.20;;;20.39;59.86
55460;BME280;41326;45.302;-122.946;2023-09-12T11:40:42;101278.62;;;20.37;59.91
55460;BME280;41326;45.302;-122.946;2023-09-12T11:43:06;101277.58;;;20.39;59.82
55460;BME280;41326;45.302;-122.946;2023-09-12T11:45:36;101274.48;;;20.39;59.78
55460;BME280;41326;45.302;-122.946;2023-09-12T11:48:08;101270.87;;;20.40;59.73
55460;BME280;41326;45.302;-122.946;2023-09-12T11:50:36;101266.68;;;20.40;59.71
55460;BME280;41326;45.302;-122.946;2023-09-12T11:53:08;101269.14;;;20.40;59.69
55460;BME280;41326;45.302;-122.946;2023-09-12T11:55:42;101270.59;;;20.39;59.59
55460;BME280;41326;45.302;-122.946;2023-09-12T11:58:07;101271.77;;;20.35;59.69
55460;BME280;41326;45.302;-122.946;2023-09-12T12:00:42;101266.26;;;20.35;59.70
55460;BME280;41326;45.302;-122.946;2023-09-12T12:03:07;101265.98;;;20.35;59.75
55460;BME280;41326;45.302;-122.946;2023-09-12T12:05:38;101262.22;;;20.37;59.69
55460;BME280;41326;45.302;-122.946;2023-09-12T12:08:08;101257.59;;;20.38;59.59
55460;BME280;41326;45.302;-122.946;2023-09-12T12:10:38;101258.32;;;20.37;59.57
55460;BME280;41326;45.302;-122.946;2023-09-12T12:13:11;101258.12;;;20.37;59.54
55460;BME280;41326;45.302;-122.946;2023-09-12T12:15:39;101261.01;;;20.37;59.43
55460;BME280;41326;45.302;-122.946;2023-09-12T12:18:09;101260.77;;;20.37;59.33
55460;BME280;41326;45.302;-122.946;2023-09-12T12:20:39;101261.36;;;20.31;59.41
55460;BME280;41326;45.302;-122.946;2023-09-12T12:23:10;101260.85;;;20.30;59.39
55460;BME280;41326;45.302;-122.946;2023-09-12T12:25:40;101258.67;;;20.31;59.33
55460;BME280;41326;45.302;-122.946;2023-09-12T12:28:10;101260.11;;;20.27;59.33
55460;BME280;41326;45.302;-122.946;2023-09-12T12:30:41;101260.29;;;20.24;59.38
55460;BME280;41326;45.302;-122.946;2023-09-12T12:33:13;101264.38;;;20.23;59.37
55460;BME280;41326;45.302;-122.946;2023-09-12T12:35:40;101262.03;;;20.24;59.32
55460;BME280;41326;45.302;-122.946;2023-09-12T12:38:11;101261.83;;;20.23;59.30
55460;BME280;41326;45.302;-122.946;2023-09-12T12:40:43;101263.37;;;20.23;59.31
55460;BME280;41326;45.302;-122.946;2023-09-12T12:43:17;101266.17;;;20.21;59.41
55460;BME280;41326;45.302;-122.946;2023-09-12T12:48:13;101264.62;;;20.22;59.28
55460;BME280;41326;45.302;-122.946;2023-09-12T12:50:43;101261.98;;;20.20;59.29
55460;BME280;41326;45.302;-122.946;2023-09-12T12:53:13;101262.45;;;20.17;59.29